createdAt,value
2023-05-24T00:03:30.995Z,101583.03
2023-05-24T00:08:33.964Z,101580.00
2023-05-24T00:13:38.341Z,101577.75
2023-05-24T00:18:42.064Z,101568.50
2023-05-24T00:23:45.565Z,101566.56
2023-05-24T00:28:49.728Z,101562.81
2023-05-24T00:33:54.053Z,101559.03
2023-05-24T00:38:56.832Z,101563.38
2023-05-24T00:44:01.053Z,101555.22
2023-05-24T00:49:05.271Z,101556.13
2023-05-24T00:54:08.185Z,101555.16
2023-05-24T00:59:12.555Z,101557.09
2023-05-24T01:04:17.654Z,101554.84
2023-05-24T01:09:29.930Z,101550.59
2023-05-24T01:14:45.990Z,101546.72
2023-05-24T01:20:00.034Z,101539.94
2023-05-24T01:25:05.861Z,101536.53
2023-05-24T01:30:11.128Z,101534.19
2023-05-24T01:35:14.013Z,101533.72
2023-05-24T01:40:17.302Z,101526.38
2023-05-24T01:45:29.766Z,101530.66
2023-05-24T01:50:35.072Z,101524.91
2023-05-24T01:55:39.093Z,101532.22
2023-05-24T02:00:45.698Z,101522.38
2023-05-24T02:05:49.337Z,101523.69
2023-05-24T02:10:52.225Z,101521.44
2023-05-24T02:15:56.419Z,101531.00
2023-05-24T02:21:02.150Z,101528.44
2023-05-24T02:26:05.027Z,101529.31
2023-05-24T02:31:09.170Z,101527.00
2023-05-24T02:36:12.081Z,101528.22
2023-05-24T02:41:18.056Z,101520.28
2023-05-24T02:46:22.307Z,101534.97
2023-05-24T02:51:25.229Z,101530.25
2023-05-24T02:56:29.165Z,101532.50
2023-05-24T03:01:34.393Z,101532.03
2023-05-24T03:06:38.675Z,101527.06
2023-05-24T03:11:41.529Z,101532.06
2023-05-24T03:16:46.733Z,101534.41
2023-05-24T03:21:49.604Z,101526.16
2023-05-24T03:26:52.383Z,101525.78
2023-05-24T03:31:56.695Z,101516.97
2023-05-24T03:37:00.323Z,101517.94
2023-05-24T03:42:04.268Z,101517.00
2023-05-24T03:47:09.617Z,101522.59
2023-05-24T03:52:13.005Z,101522.09
2023-05-24T03:57:15.942Z,101520.53
2023-05-24T04:02:20.229Z,101535.09
2023-05-24T04:07:24.509Z,101541.97
2023-05-24T04:12:27.534Z,101530.13
2023-05-24T04:17:35.140Z,101538.94
2023-05-24T04:22:38.379Z,101535.72
2023-05-24T04:27:41.345Z,101535.53
2023-05-24T04:32:46.046Z,101535.19
2023-05-24T04:37:49.692Z,101538.13
2023-05-24T04:42:53.694Z,101547.28
2023-05-24T04:47:58.258Z,101545.22
2023-05-24T04:53:01.179Z,101547.50
2023-05-24T04:58:04.393Z,101552.22
2023-05-24T05:03:08.870Z,101565.53
2023-05-24T05:08:11.985Z,101556.28
2023-05-24T05:13:14.903Z,101571.44
2023-05-24T05:18:19.395Z,101570.84
2023-05-24T05:23:22.407Z,101572.00
2023-05-24T05:28:25.335Z,101574.34
2023-05-24T05:33:29.985Z,101575.38
2023-05-24T05:38:32.765Z,101579.28
2023-05-24T05:43:35.745Z,101570.31
2023-05-24T05:48:40.014Z,101582.63
2023-05-24T05:53:42.999Z,101578.81
2023-05-24T05:58:45.839Z,101582.75
2023-05-24T06:03:50.136Z,101587.63
2023-05-24T06:08:53.144Z,101603.47
2023-05-24T06:13:56.048Z,101606.81
2023-05-24T06:19:05.804Z,101613.09
2023-05-24T06:24:09.769Z,101620.59
2023-05-24T06:29:12.634Z,101609.03
2023-05-24T06:34:17.739Z,101620.06
2023-05-24T06:39:20.954Z,101627.66
2023-05-24T06:44:30.871Z,101635.03
2023-05-24T06:49:35.088Z,101635.94
2023-05-24T06:54:39.061Z,101644.94
2023-05-24T06:59:42.214Z,101652.22
2023-05-24T07:04:46.497Z,101657.00
2023-05-24T07:09:49.333Z,101661.88
2023-05-24T07:14:52.200Z,101664.38
2023-05-24T07:19:57.014Z,101659.00
2023-05-24T07:24:59.834Z,101673.78
2023-05-24T07:30:02.755Z,101676.72
2023-05-24T07:35:08.141Z,101673.31
2023-05-24T07:40:12.242Z,101665.78
2023-05-24T07:45:15.109Z,101656.84
2023-05-24T07:50:20.087Z,101659.03
2023-05-24T07:55:22.947Z,101682.38
2023-05-24T08:00:25.992Z,101675.34
2023-05-24T08:05:30.207Z,101675.34
2023-05-24T08:10:33.162Z,101675.81
2023-05-24T08:15:36.299Z,101674.59
2023-05-24T08:20:41.219Z,101680.75
2023-05-24T08:25:44.801Z,101685.13
2023-05-24T08:30:48.127Z,101684.59
2023-05-24T08:35:52.962Z,101681.75
2023-05-24T08:40:56.004Z,101678.03
2023-05-24T08:46:00.105Z,101692.50
2023-05-24T08:51:04.520Z,101707.94
2023-05-24T08:56:08.985Z,101717.25
2023-05-24T09:01:12.993Z,101718.47
2023-05-24T09:06:18.895Z,101704.81
2023-05-24T09:11:22.829Z,101712.56
2023-05-24T09:16:26.229Z,101707.63
2023-05-24T09:21:30.743Z,101713.66
2023-05-24T09:26:34.043Z,101709.84
2023-05-24T09:31:38.440Z,101713.97
2023-05-24T09:36:44.071Z,101725.56
2023-05-24T09:41:55.753Z,101723.94
2023-05-24T09:47:05.364Z,101734.41
2023-05-24T09:52:09.739Z,101736.69
2023-05-24T09:57:12.628Z,101738.53
2023-05-24T10:02:18.542Z,101731.69
2023-05-24T10:07:22.884Z,101732.75
2023-05-24T10:12:26.184Z,101730.50
2023-05-24T10:17:29.310Z,101723.03
2023-05-24T10:22:38.707Z,101733.06
2023-05-24T10:27:42.590Z,101742.28
2023-05-24T10:32:49.029Z,101741.47
2023-05-24T10:37:54.487Z,101749.25
2023-05-24T10:42:57.341Z,101746.84
2023-05-24T10:48:03.349Z,101755.56
2023-05-24T10:53:14.851Z,101757.03
2023-05-24T10:58:17.715Z,101744.66
2023-05-24T11:03:23.798Z,101740.06
2023-05-24T11:08:33.288Z,101739.44
2023-05-24T11:13:37.911Z,101732.66
2023-05-24T11:18:40.918Z,101737.91
2023-05-24T11:23:45.478Z,101741.78
2023-05-24T11:28:49.024Z,101728.38
2023-05-24T11:33:51.826Z,101730.28
2023-05-24T11:38:56.794Z,101731.34
2023-05-24T11:44:00.068Z,101742.66
2023-05-24T11:49:03.753Z,101744.81
2023-05-24T11:54:08.027Z,101757.22
2023-05-24T11:59:16.339Z,101755.78
2023-05-24T12:04:19.570Z,101764.78
2023-05-24T12:09:24.757Z,101762.06
2023-05-24T12:14:30.957Z,101766.03
2023-05-24T12:19:36.274Z,101773.16
2023-05-24T12:24:42.278Z,101766.22
2023-05-24T12:29:45.194Z,101769.16
2023-05-24T12:34:50.888Z,101769.72
2023-05-24T12:39:55.085Z,101774.66
2023-05-24T12:44:58.197Z,101783.63
2023-05-24T12:50:01.030Z,101787.41
2023-05-24T12:55:06.917Z,101786.59
2023-05-24T13:00:11.662Z,101779.53
2023-05-24T13:05:14.676Z,101781.75
2023-05-24T13:10:19.459Z,101781.13
2023-05-24T13:15:24.035Z,101786.38
2023-05-24T13:20:27.472Z,101778.47
2023-05-24T13:25:32.647Z,101771.28
2023-05-24T13:30:35.649Z,101779.38
2023-05-24T13:35:39.812Z,101770.69
2023-05-24T13:40:44.748Z,101768.78
2023-05-24T13:45:47.843Z,101769.94
2023-05-24T13:50:51.464Z,101768.63
2023-05-24T13:55:56.539Z,101765.72
2023-05-24T14:00:59.461Z,101766.66
2023-05-24T14:06:02.745Z,101770.38
2023-05-24T14:11:07.231Z,101768.88
2023-05-24T14:16:10.271Z,101771.06
2023-05-24T14:21:13.184Z,101770.25
2023-05-24T14:26:17.859Z,101772.50
2023-05-24T14:31:20.972Z,101791.00
2023-05-24T14:36:23.893Z,101781.53
2023-05-24T14:41:28.648Z,101787.03
2023-05-24T14:46:31.631Z,101785.13
2023-05-24T14:51:34.861Z,101794.34
2023-05-24T14:56:38.999Z,101793.63
2023-05-24T15:01:41.971Z,101798.63
2023-05-24T15:06:44.929Z,101795.88
2023-05-24T15:11:49.173Z,101798.53
2023-05-24T15:16:52.114Z,101791.63
2023-05-24T15:21:55.561Z,101797.66
2023-05-24T15:26:59.953Z,101794.28
2023-05-24T15:32:02.889Z,101793.44
2023-05-24T15:37:06.033Z,101793.22
2023-05-24T15:42:10.266Z,101793.53
2023-05-24T15:47:13.171Z,101801.22
2023-05-24T15:52:16.020Z,101798.34
2023-05-24T15:57:20.215Z,101792.13
2023-05-24T16:02:23.258Z,101801.81
2023-05-24T16:07:26.366Z,101808.25
2023-05-24T16:12:33.061Z,101817.31
2023-05-24T16:17:35.925Z,101802.66
2023-05-24T16:22:42.345Z,101804.03
2023-05-24T16:27:48.350Z,101800.34
2023-05-24T16:32:51.318Z,101806.97
2023-05-24T16:37:57.128Z,101806.19
2023-05-24T16:43:01.421Z,101792.59
2023-05-24T16:48:04.509Z,101795.44
2023-05-24T16:53:07.516Z,101804.34
2023-05-24T16:58:12.165Z,101806.59
2023-05-24T17:03:15.580Z,101806.00
2023-05-24T17:08:18.979Z,101816.00
2023-05-24T17:13:23.647Z,101819.09
2023-05-24T17:18:30.298Z,101827.88
2023-05-24T17:23:36.616Z,101831.50
2023-05-24T17:28:41.089Z,101826.78
2023-05-24T17:33:44.077Z,101829.38
2023-05-24T17:38:46.963Z,101841.19
2023-05-24T17:43:51.201Z,101845.63
2023-05-24T17:48:54.472Z,101831.56
2023-05-24T17:53:57.481Z,101834.25
2023-05-24T17:59:01.747Z,101847.00
2023-05-24T18:04:07.655Z,101854.63
2023-05-24T18:09:11.371Z,101849.66
2023-05-24T18:14:15.725Z,101858.59
2023-05-24T18:19:18.654Z,101862.50
2023-05-24T18:24:21.968Z,101875.16
2023-05-24T18:29:26.161Z,101882.16
2023-05-24T18:34:29.078Z,101876.97
2023-05-24T18:39:31.984Z,101879.59
2023-05-24T18:44:39.955Z,101890.06
2023-05-24T18:49:42.844Z,101891.88
2023-05-24T18:54:47.069Z,101887.25
2023-05-24T18:59:51.685Z,101898.91
2023-05-24T19:04:58.161Z,101903.75
2023-05-24T19:10:01.334Z,101907.72
2023-05-24T19:15:06.668Z,101918.72
2023-05-24T19:20:10.195Z,101922.16
2023-05-24T19:25:13.059Z,101930.91
2023-05-24T19:30:18.478Z,101937.06
2023-05-24T19:35:21.408Z,101931.59
2023-05-24T19:40:24.291Z,101932.09
2023-05-24T19:45:28.574Z,101938.44
2023-05-24T19:50:31.619Z,101948.41
2023-05-24T19:55:34.422Z,101951.78
2023-05-24T20:00:38.798Z,101955.97
2023-05-24T20:05:41.915Z,101956.53
2023-05-24T20:10:45.159Z,101969.91
2023-05-24T20:15:49.491Z,101969.78
2023-05-24T20:20:52.421Z,101985.00
2023-05-24T20:25:56.216Z,101981.38
2023-05-24T20:31:01.506Z,101985.25
2023-05-24T20:36:05.169Z,102002.03
2023-05-24T20:41:08.076Z,101992.75
2023-05-24T20:46:12.527Z,101993.41
2023-05-24T20:51:15.433Z,101995.25
2023-05-24T20:56:19.751Z,102007.44
2023-05-24T21:01:24.128Z,102002.59
2023-05-24T21:06:27.076Z,102009.25
2023-05-24T21:11:29.952Z,102008.47
2023-05-24T21:16:34.339Z,102016.41
2023-05-24T21:21:37.667Z,102016.88
2023-05-24T21:26:40.519Z,102022.41
2023-05-24T21:31:45.280Z,102026.25
2023-05-24T21:36:48.164Z,102029.09
2023-05-24T21:41:50.951Z,102035.88
2023-05-24T21:46:55.689Z,102039.75
2023-05-24T21:51:58.806Z,102040.13
2023-05-24T21:57:01.808Z,102044.78
2023-05-24T22:02:06.170Z,102031.63
2023-05-24T22:07:10.130Z,102046.88
2023-05-24T22:12:13.044Z,102051.66
2023-05-24T22:17:17.268Z,102060.56
2023-05-24T22:22:20.262Z,102060.16
2023-05-24T22:27:23.463Z,102064.25
2023-05-24T22:32:28.054Z,102066.06
2023-05-24T22:37:30.944Z,102067.25
2023-05-24T22:42:33.771Z,102068.63
2023-05-24T22:47:39.779Z,102070.97
2023-05-24T22:52:43.284Z,102071.38
2023-05-24T22:57:46.308Z,102067.31
2023-05-24T23:02:50.495Z,102061.19
2023-05-24T23:07:54.998Z,102063.41
2023-05-24T23:12:58.681Z,102069.38
2023-05-24T23:18:05.689Z,102073.78
2023-05-24T23:23:09.108Z,102069.78
2023-05-24T23:28:11.934Z,102064.97
2023-05-24T23:33:16.441Z,102065.25
2023-05-24T23:38:19.281Z,102060.16
2023-05-24T23:43:22.059Z,102055.53
2023-05-24T23:48:26.225Z,102063.03
2023-05-24T23:53:29.075Z,102061.88
2023-05-24T23:58:33.503Z,102061.09
